sensor_id;sensor_type;location;lat;lon;timestamp;pressure;altitude;pressure_sealevel;temperature;humidity
62617;BME280;62539;51.190;6.808;2023-03-19T00:00:03;100861.91;;;20.46;52.40
62617;BME280;62539;51.190;6.808;2023-03-19T00:02:32;100871.78;;;20.40;52.42
62617;BME280;62539;51.190;6.808;2023-03-19T00:04:57;100870.00;;;20.41;52.54
62617;BME280;62539;51.190;6.808;2023-03-19T00:07:23;100870.91;;;20.40;52.83
62617;BME280;62539;51.190;6.808;2023-03-19T00:09:48;100873.56;;;20.40;52.64
62617;BME280;62539;51.190;6.808;2023-03-19T00:12:14;100868.28;;;20.40;52.72
62617;BME280;62539;51.190;6.808;2023-03-19T00:14:40;100868.28;;;20.40;52.48
62617;BME280;62539;51.190;6.808;2023-03-19T00:17:06;100868.28;;;20.40;52.54
62617;BME280;62539;51.190;6.808;2023-03-19T00:19:31;100866.56;;;20.39;52.63
62617;BME280;62539;51.190;6.808;2023-03-19T00:21:57;100866.56;;;20.39;52.51
62617;BME280;62539;51.190;6.808;2023-03-19T00:24:22;100870.13;;;20.38;52.56
62617;BME280;62539;51.190;6.808;2023-03-19T00:26:48;100861.28;;;20.39;52.72
62617;BME280;62539;51.190;6.808;2023-03-19T00:29:15;100863.13;;;20.37;52.59
62617;BME280;62539;51.190;6.808;2023-03-19T00:31:40;100857.06;;;20.35;52.28
62617;BME280;62539;51.190;6.808;2023-03-19T00:34:06;100867.69;;;20.33;52.38
62617;BME280;62539;51.190;6.808;2023-03-19T00:36:33;100859.00;;;20.31;52.54
62617;BME280;62539;51.190;6.808;2023-03-19T00:38:59;100858.25;;;20.27;52.53
62617;BME280;62539;51.190;6.808;2023-03-19T00:41:24;100858.38;;;20.24;52.52
62617;BME280;62539;51.190;6.808;2023-03-19T00:43:54;100862.84;;;20.22;52.71
62617;BME280;62539;51.190;6.808;2023-03-19T00:46:22;100867.31;;;20.20;52.75
62617;BME280;62539;51.190;6.808;2023-03-19T00:48:48;100863.88;;;20.18;52.69
62617;BME280;62539;51.190;6.808;2023-03-19T00:51:18;100864.00;;;20.15;52.72
62617;BME280;62539;51.190;6.808;2023-03-19T00:53:43;100863.28;;;20.11;52.64
62617;BME280;62539;51.190;6.808;2023-03-19T00:56:11;100860.69;;;20.10;52.75
62617;BME280;62539;51.190;6.808;2023-03-19T00:58:38;100865.16;;;20.08;52.87
62617;BME280;62539;51.190;6.808;2023-03-19T01:01:08;100865.28;;;20.05;52.90
62617;BME280;62539;51.190;6.808;2023-03-19T01:03:37;100869.75;;;20.03;52.95
62617;BME280;62539;51.190;6.808;2023-03-19T01:06:02;100868.09;;;20.00;52.86
62617;BME280;62539;51.190;6.808;2023-03-19T01:08:29;100864.72;;;19.96;52.96
62617;BME280;62539;51.190;6.808;2023-03-19T01:10:54;100863.94;;;19.94;52.84
62617;BME280;62539;51.190;6.808;2023-03-19T01:13:20;100864.84;;;19.93;53.00
62617;BME280;62539;51.190;6.808;2023-03-19T01:15:45;100858.84;;;19.90;52.90
62617;BME280;62539;51.190;6.808;2023-03-19T01:18:11;100865.03;;;19.87;53.07
62617;BME280;62539;51.190;6.808;2023-03-19T01:20:38;100861.63;;;19.85;53.10
62617;BME280;62539;51.190;6.808;2023-03-19T01:23:05;100866.09;;;19.83;53.08
62617;BME280;62539;51.190;6.808;2023-03-19T01:25:32;100860.03;;;19.81;53.02
62617;BME280;62539;51.190;6.808;2023-03-19T01:27:58;100853.97;;;19.79;53.19
62617;BME280;62539;51.190;6.808;2023-03-19T01:30:23;100851.41;;;19.77;53.07
62617;BME280;62539;51.190;6.808;2023-03-19T01:32:49;100852.34;;;19.75;53.05
62617;BME280;62539;51.190;6.808;2023-03-19T01:35:15;100847.16;;;19.73;53.10
62617;BME280;62539;51.190;6.808;2023-03-19T01:37:41;100844.56;;;19.72;53.21
62617;BME280;62539;51.190;6.808;2023-03-19T01:40:12;100847.28;;;19.70;53.33
62617;BME280;62539;51.190;6.808;2023-03-19T01:42:54;100846.53;;;19.66;53.35
62617;BME280;62539;51.190;6.808;2023-03-19T01:45:33;100849.22;;;19.65;53.20
62617;BME280;62539;51.190;6.808;2023-03-19T01:48:03;100843.16;;;19.63;53.49
62617;BME280;62539;51.190;6.808;2023-03-19T01:50:38;100845.91;;;19.60;53.49
62617;BME280;62539;51.190;6.808;2023-03-19T01:53:06;100843.31;;;19.58;53.34
62617;BME280;62539;51.190;6.808;2023-03-19T01:55:33;100845.16;;;19.56;53.29
62617;BME280;62539;51.190;6.808;2023-03-19T01:58:00;100836.41;;;19.56;53.31
62617;BME280;62539;51.190;6.808;2023-03-19T02:00:27;100832.06;;;19.54;53.53
62617;BME280;62539;51.190;6.808;2023-03-19T02:02:56;100833.03;;;19.52;53.44
62617;BME280;62539;51.190;6.808;2023-03-19T02:05:25;100842.75;;;19.50;53.64
62617;BME280;62539;51.190;6.808;2023-03-19T02:07:53;100837.56;;;19.48;53.66
62617;BME280;62539;51.190;6.808;2023-03-19T02:10:22;100841.16;;;19.46;53.77
62617;BME280;62539;51.190;6.808;2023-03-19T02:12:48;100847.34;;;19.45;53.68
62617;BME280;62539;51.190;6.808;2023-03-19T02:15:14;100847.34;;;19.45;53.72
62617;BME280;62539;51.190;6.808;2023-03-19T02:17:41;100846.53;;;19.43;53.67
62617;BME280;62539;51.190;6.808;2023-03-19T02:23:14;100847.56;;;19.38;53.74
62617;BME280;62539;51.190;6.808;2023-03-19T02:26:05;100846.75;;;19.36;53.59
62617;BME280;62539;51.190;6.808;2023-03-19T02:28:36;100845.97;;;19.34;53.80
62617;BME280;62539;51.190;6.808;2023-03-19T02:31:03;100846.97;;;19.30;53.71
62617;BME280;62539;51.190;6.808;2023-03-19T02:33:29;100844.34;;;19.30;53.85
62617;BME280;62539;51.190;6.808;2023-03-19T02:35:56;100841.78;;;19.29;53.85
62617;BME280;62539;51.190;6.808;2023-03-19T02:38:24;100837.44;;;19.28;53.90
62617;BME280;62539;51.190;6.808;2023-03-19T02:40:57;100834.81;;;19.28;53.83
62617;BME280;62539;51.190;6.808;2023-03-19T02:43:26;100840.91;;;19.28;53.88
62617;BME280;62539;51.190;6.808;2023-03-19T02:45:52;100834.81;;;19.28;53.86
62617;BME280;62539;51.190;6.808;2023-03-19T02:48:18;100831.31;;;19.27;53.79
62617;BME280;62539;51.190;6.808;2023-03-19T02:50:43;100839.19;;;19.27;53.75
62617;BME280;62539;51.190;6.808;2023-03-19T02:53:09;100845.34;;;19.28;53.83
62617;BME280;62539;51.190;6.808;2023-03-19T02:55:35;100847.97;;;19.28;53.84
62617;BME280;62539;51.190;6.808;2023-03-19T02:58:01;100844.47;;;19.27;53.78
62617;BME280;62539;51.190;6.808;2023-03-19T03:00:27;100844.47;;;19.27;53.76
62617;BME280;62539;51.190;6.808;2023-03-19T03:02:54;100836.56;;;19.27;53.72
62617;BME280;62539;51.190;6.808;2023-03-19T03:05:22;100837.50;;;19.26;53.82
62617;BME280;62539;51.190;6.808;2023-03-19T03:07:48;100842.75;;;19.26;53.88
62617;BME280;62539;51.190;6.808;2023-03-19T03:10:14;100841.03;;;19.25;53.76
62617;BME280;62539;51.190;6.808;2023-03-19T03:12:40;100846.28;;;19.25;53.75
62617;BME280;62539;51.190;6.808;2023-03-19T03:15:06;100843.72;;;19.23;53.70
62617;BME280;62539;51.190;6.808;2023-03-19T03:17:36;100844.56;;;19.24;53.78
62617;BME280;62539;51.190;6.808;2023-03-19T03:20:03;100844.56;;;19.24;53.70
62617;BME280;62539;51.190;6.808;2023-03-19T03:22:29;100847.28;;;19.22;53.72
62617;BME280;62539;51.190;6.808;2023-03-19T03:24:55;100846.41;;;19.22;53.67
62617;BME280;62539;51.190;6.808;2023-03-19T03:27:21;100846.41;;;19.22;53.73
62617;BME280;62539;51.190;6.808;2023-03-19T03:29:46;100851.66;;;19.22;53.81
62617;BME280;62539;51.190;6.808;2023-03-19T03:32:12;100855.16;;;19.22;53.75
62617;BME280;62539;51.190;6.808;2023-03-19T03:34:38;100856.09;;;19.21;53.62
62617;BME280;62539;51.190;6.808;2023-03-19T03:37:03;100859.56;;;19.22;53.80
62617;BME280;62539;51.190;6.808;2023-03-19T03:39:29;100862.19;;;19.22;53.79
62617;BME280;62539;51.190;6.808;2023-03-19T03:41:54;100862.19;;;19.22;53.82
62617;BME280;62539;51.190;6.808;2023-03-19T03:44:20;100863.09;;;19.21;53.73
62617;BME280;62539;51.190;6.808;2023-03-19T03:46:45;100865.72;;;19.21;53.63
62617;BME280;62539;51.190;6.808;2023-03-19T03:49:10;100874.53;;;19.20;53.73
62617;BME280;62539;51.190;6.808;2023-03-19T03:51:36;100864.00;;;19.20;53.77
62617;BME280;62539;51.190;6.808;2023-03-19T03:54:02;100874.53;;;19.20;53.77
62617;BME280;62539;51.190;6.808;2023-03-19T03:56:27;100867.56;;;19.19;53.70
62617;BME280;62539;51.190;6.808;2023-03-19T03:58:53;100871.97;;;19.18;53.81
62617;BME280;62539;51.190;6.808;2023-03-19T04:01:19;100876.34;;;19.18;53.77
62617;BME280;62539;51.190;6.808;2023-03-19T04:03:45;100876.34;;;19.18;53.72
62617;BME280;62539;51.190;6.808;2023-03-19T04:06:16;100878.97;;;19.18;53.82
62617;BME280;62539;51.190;6.808;2023-03-19T04:08:43;100878.94;;;19.19;53.71
62617;BME280;62539;51.190;6.808;2023-03-19T04:11:09;100881.63;;;19.18;53.74
62617;BME280;62539;51.190;6.808;2023-03-19T04:13:35;100887.75;;;19.18;53.85
62617;BME280;62539;51.190;6.808;2023-03-19T04:16:03;100886.88;;;19.18;53.72
62617;BME280;62539;51.190;6.808;2023-03-19T04:18:30;100882.50;;;19.18;53.66
62617;BME280;62539;51.190;6.808;2023-03-19T04:20:55;100888.59;;;19.19;53.74
62617;BME280;62539;51.190;6.808;2023-03-19T04:23:22;100898.25;;;19.18;53.68
62617;BME280;62539;51.190;6.808;2023-03-19T04:25:48;100888.59;;;19.19;53.75
62617;BME280;62539;51.190;6.808;2023-03-19T04:28:14;100893.00;;;19.18;53.85
62617;BME280;62539;51.190;6.808;2023-03-19T04:30:40;100886.88;;;19.18;53.70
62617;BME280;62539;51.190;6.808;2023-03-19T04:33:07;100891.22;;;19.19;53.71
62617;BME280;62539;51.190;6.808;2023-03-19T04:35:34;100899.09;;;19.19;53.66
62617;BME280;62539;51.190;6.808;2023-03-19T04:38:00;100902.66;;;19.18;53.62
62617;BME280;62539;51.190;6.808;2023-03-19T04:40:27;100897.38;;;19.18;53.62
62617;BME280;62539;51.190;6.808;2023-03-19T04:42:53;100892.13;;;19.18;53.58
62617;BME280;62539;51.190;6.808;2023-03-19T04:45:19;100897.38;;;19.18;53.62
62617;BME280;62539;51.190;6.808;2023-03-19T04:47:45;100893.84;;;19.19;53.57
62617;BME280;62539;51.190;6.808;2023-03-19T04:50:10;100893.00;;;19.18;53.66
62617;BME280;62539;51.190;6.808;2023-03-19T04:52:37;100899.09;;;19.19;53.66
62617;BME280;62539;51.190;6.808;2023-03-19T04:55:05;100901.75;;;19.19;53.43
62617;BME280;62539;51.190;6.808;2023-03-19T04:57:32;100904.38;;;19.19;53.61
62617;BME280;62539;51.190;6.808;2023-03-19T04:59:57;100910.53;;;19.18;53.75
62617;BME280;62539;51.190;6.808;2023-03-19T05:02:23;100909.63;;;19.19;53.54
62617;BME280;62539;51.190;6.808;2023-03-19T05:04:50;100908.78;;;19.18;53.55
62617;BME280;62539;51.190;6.808;2023-03-19T05:07:15;100909.63;;;19.19;53.45
62617;BME280;62539;51.190;6.808;2023-03-19T05:09:41;100907.00;;;19.19;53.46
62617;BME280;62539;51.190;6.808;2023-03-19T05:12:09;100904.38;;;19.19;53.47
62617;BME280;62539;51.190;6.808;2023-03-19T05:14:35;100914.88;;;19.19;53.46
62617;BME280;62539;51.190;6.808;2023-03-19T05:17:01;100915.75;;;19.19;53.46
62617;BME280;62539;51.190;6.808;2023-03-19T05:19:27;100918.31;;;19.21;53.42
62617;BME280;62539;51.190;6.808;2023-03-19T05:21:52;100925.31;;;19.22;53.49
62617;BME280;62539;51.190;6.808;2023-03-19T05:24:18;100927.91;;;19.23;53.44
62617;BME280;62539;51.190;6.808;2023-03-19T05:26:43;100924.38;;;19.23;53.46
62617;BME280;62539;51.190;6.808;2023-03-19T05:29:10;100929.63;;;19.24;53.48
62617;BME280;62539;51.190;6.808;2023-03-19T05:31:36;100928.69;;;19.26;53.35
62617;BME280;62539;51.190;6.808;2023-03-19T05:34:03;100932.16;;;19.26;53.24
62617;BME280;62539;51.190;6.808;2023-03-19T05:36:28;100926.00;;;19.27;53.31
62617;BME280;62539;51.190;6.808;2023-03-19T05:38:54;100926.88;;;19.28;53.28
62617;BME280;62539;51.190;6.808;2023-03-19T05:41:19;100923.38;;;19.27;53.28
62617;BME280;62539;51.190;6.808;2023-03-19T05:43:45;100923.38;;;19.27;53.25
62617;BME280;62539;51.190;6.808;2023-03-19T05:46:10;100931.22;;;19.29;53.25
62617;BME280;62539;51.190;6.808;2023-03-19T05:48:36;100928.59;;;19.29;53.25
62617;BME280;62539;51.190;6.808;2023-03-19T05:51:01;100932.06;;;19.29;53.26
62617;BME280;62539;51.190;6.808;2023-03-19T05:53:27;100937.31;;;19.29;53.13
62617;BME280;62539;51.190;6.808;2023-03-19T05:55:53;100936.41;;;19.30;53.41
62617;BME280;62539;51.190;6.808;2023-03-19T05:58:19;100938.13;;;19.31;53.20
62617;BME280;62539;51.190;6.808;2023-03-19T06:00:45;100940.75;;;19.31;53.19
62617;BME280;62539;51.190;6.808;2023-03-19T06:03:12;100943.38;;;19.31;53.11
62617;BME280;62539;51.190;6.808;2023-03-19T06:05:38;100957.41;;;19.32;53.07
62617;BME280;62539;51.190;6.808;2023-03-19T06:08:03;100943.34;;;19.33;53.16
62617;BME280;62539;51.190;6.808;2023-03-19T06:10:29;100952.09;;;19.33;53.19
62617;BME280;62539;51.190;6.808;2023-03-19T06:12:55;100952.09;;;19.33;53.34
62617;BME280;62539;51.190;6.808;2023-03-19T06:15:20;100966.13;;;19.34;53.11
62617;BME280;62539;51.190;6.808;2023-03-19T06:17:46;100954.72;;;19.33;53.06
62617;BME280;62539;51.190;6.808;2023-03-19T06:20:11;100954.72;;;19.33;53.09
62617;BME280;62539;51.190;6.808;2023-03-19T06:22:37;100959.97;;;19.33;53.02
62617;BME280;62539;51.190;6.808;2023-03-19T06:25:02;100965.25;;;19.33;53.03
62617;BME280;62539;51.190;6.808;2023-03-19T06:27:28;100970.50;;;19.33;53.16
62617;BME280;62539;51.190;6.808;2023-03-19T06:29:53;100976.63;;;19.34;53.73
62617;BME280;62539;51.190;6.808;2023-03-19T06:32:19;100983.56;;;19.36;53.59
62617;BME280;62539;51.190;6.808;2023-03-19T06:34:44;100983.56;;;19.36;53.52
62617;BME280;62539;51.190;6.808;2023-03-19T06:37:10;100978.28;;;19.36;53.68
62617;BME280;62539;51.190;6.808;2023-03-19T06:39:36;100980.06;;;19.36;53.45
62617;BME280;62539;51.190;6.808;2023-03-19T06:42:02;100983.56;;;19.36;53.49
62617;BME280;62539;51.190;6.808;2023-03-19T06:44:27;100980.91;;;19.36;53.46
62617;BME280;62539;51.190;6.808;2023-03-19T06:46:54;100973.91;;;19.37;53.59
62617;BME280;62539;51.190;6.808;2023-03-19T06:49:19;100982.72;;;19.36;53.52
62617;BME280;62539;51.190;6.808;2023-03-19T06:51:45;100987.06;;;19.37;53.56
62617;BME280;62539;51.190;6.808;2023-03-19T06:54:11;100985.25;;;19.37;53.76
62617;BME280;62539;51.190;6.808;2023-03-19T06:56:36;100984.34;;;19.38;53.85
62617;BME280;62539;51.190;6.808;2023-03-19T06:59:02;100978.19;;;19.39;53.59
62617;BME280;62539;51.190;6.808;2023-03-19T07:01:27;100976.44;;;19.40;53.90
62617;BME280;62539;51.190;6.808;2023-03-19T07:03:53;100986.88;;;19.42;53.62
62617;BME280;62539;51.190;6.808;2023-03-19T07:06:19;100983.31;;;19.44;53.77
62617;BME280;62539;51.190;6.808;2023-03-19T07:08:44;100984.94;;;19.47;53.74
62617;BME280;62539;51.190;6.808;2023-03-19T07:11:11;100981.38;;;19.49;53.73
62617;BME280;62539;51.190;6.808;2023-03-19T07:13:37;100991.78;;;19.52;53.73
62617;BME280;62539;51.190;6.808;2023-03-19T07:16:03;100990.00;;;19.53;53.54
62617;BME280;62539;51.190;6.808;2023-03-19T07:18:28;100993.31;;;19.58;53.53
62617;BME280;62539;51.190;6.808;2023-03-19T07:20:54;100997.69;;;19.59;53.25
62617;BME280;62539;51.190;6.808;2023-03-19T07:23:20;100997.56;;;19.62;53.30
62617;BME280;62539;51.190;6.808;2023-03-19T07:25:45;101004.53;;;19.63;53.07
62617;BME280;62539;51.190;6.808;2023-03-19T07:28:11;101009.81;;;19.63;52.89
62617;BME280;62539;51.190;6.808;2023-03-19T07:30:38;101019.50;;;19.63;52.73
62617;BME280;62539;51.190;6.808;2023-03-19T07:33:04;101025.59;;;19.63;52.58
62617;BME280;62539;51.190;6.808;2023-03-19T07:35:31;101023.88;;;19.62;52.75
62617;BME280;62539;51.190;6.808;2023-03-19T07:37:57;101023.84;;;19.64;52.54
62617;BME280;62539;51.190;6.808;2023-03-19T07:40:24;101017.59;;;19.66;52.40
62617;BME280;62539;51.190;6.808;2023-03-19T07:42:50;101033.28;;;19.69;52.39
62617;BME280;62539;51.190;6.808;2023-03-19T07:45:16;101026.25;;;19.70;52.32
62617;BME280;62539;51.190;6.808;2023-03-19T07:47:41;101029.81;;;19.69;52.22
62617;BME280;62539;51.190;6.808;2023-03-19T07:50:07;101028.00;;;19.69;52.10
62617;BME280;62539;51.190;6.808;2023-03-19T07:52:33;101030.66;;;19.69;52.18
62617;BME280;62539;51.190;6.808;2023-03-19T07:54:59;101033.28;;;19.69;52.10
62617;BME280;62539;51.190;6.808;2023-03-19T07:57:25;101041.19;;;19.69;51.91
62617;BME280;62539;51.190;6.808;2023-03-19T07:59:51;101043.81;;;19.69;52.21
62617;BME280;62539;51.190;6.808;2023-03-19T08:02:17;101044.69;;;19.70;52.05
62617;BME280;62539;51.190;6.808;2023-03-19T08:04:43;101035.91;;;19.69;51.98
62617;BME280;62539;51.190;6.808;2023-03-19T08:07:08;101043.81;;;19.69;51.98
62617;BME280;62539;51.190;6.808;2023-03-19T08:09:38;101041.97;;;19.72;51.74
62617;BME280;62539;51.190;6.808;2023-03-19T08:12:05;101045.50;;;19.72;52.03
62617;BME280;62539;51.190;6.808;2023-03-19T08:14:32;101046.34;;;19.73;51.95
62617;BME280;62539;51.190;6.808;2023-03-19T08:16:58;101036.56;;;19.76;51.82
62617;BME280;62539;51.190;6.808;2023-03-19T08:19:24;101036.41;;;19.81;51.74
62617;BME280;62539;51.190;6.808;2023-03-19T08:21:49;101039.72;;;19.86;51.48
62617;BME280;62539;51.190;6.808;2023-03-19T08:24:15;101046.53;;;19.93;51.40
62617;BME280;62539;51.190;6.808;2023-03-19T08:26:41;101049.03;;;19.96;51.16
62617;BME280;62539;51.190;6.808;2023-03-19T08:29:07;101048.81;;;20.03;51.12
62617;BME280;62539;51.190;6.808;2023-03-19T08:31:32;101039.88;;;20.07;50.95
62617;BME280;62539;51.190;6.808;2023-03-19T08:33:58;101047.63;;;20.11;50.70
62617;BME280;62539;51.190;6.808;2023-03-19T08:36:28;101054.44;;;20.17;50.51
62617;BME280;62539;51.190;6.808;2023-03-19T08:38:55;101052.50;;;20.22;50.55
62617;BME280;62539;51.190;6.808;2023-03-19T08:41:21;101052.16;;;20.32;50.21
62617;BME280;62539;51.190;6.808;2023-03-19T08:43:47;101052.84;;;20.37;50.26
62617;BME280;62539;51.190;6.808;2023-03-19T08:46:13;101050.88;;;20.42;50.23
62617;BME280;62539;51.190;6.808;2023-03-19T08:48:38;101064.75;;;20.47;50.02
62617;BME280;62539;51.190;6.808;2023-03-19T08:51:04;101058.41;;;20.53;49.77
62617;BME280;62539;51.190;6.808;2023-03-19T08:53:31;101060.00;;;20.57;49.67
62617;BME280;62539;51.190;6.808;2023-03-19T08:55:59;101066.00;;;20.61;49.41
62617;BME280;62539;51.190;6.808;2023-03-19T08:58:27;101063.31;;;20.62;49.29
62617;BME280;62539;51.190;6.808;2023-03-19T09:00:59;101058.88;;;20.63;49.34
62617;BME280;62539;51.190;6.808;2023-03-19T09:03:29;101062.31;;;20.65;49.21
62617;BME280;62539;51.190;6.808;2023-03-19T09:06:03;101063.91;;;20.69;49.24
62617;BME280;62539;51.190;6.808;2023-03-19T09:08:30;101062.97;;;20.71;49.15
62617;BME280;62539;51.190;6.808;2023-03-19T09:10:56;101058.41;;;20.75;49.02
62617;BME280;62539;51.190;6.808;2023-03-19T09:13:22;101061.84;;;20.77;48.98
62617;BME280;62539;51.190;6.808;2023-03-19T09:15:49;101060.78;;;20.83;48.89
62617;BME280;62539;51.190;6.808;2023-03-19T09:18:15;101063.22;;;20.88;48.70
62617;BME280;62539;51.190;6.808;2023-03-19T09:20:42;101064.81;;;20.92;48.74
62617;BME280;62539;51.190;6.808;2023-03-19T09:23:07;101064.66;;;20.96;48.49
62617;BME280;62539;51.190;6.808;2023-03-19T09:25:33;101076.84;;;20.99;48.61
62617;BME280;62539;51.190;6.808;2023-03-19T09:27:59;101074.16;;;21.00;48.47
62617;BME280;62539;51.190;6.808;2023-03-19T09:30:25;101070.59;;;21.02;48.48
62617;BME280;62539;51.190;6.808;2023-03-19T09:32:50;101066.84;;;21.07;48.15
62617;BME280;62539;51.190;6.808;2023-03-19T09:35:15;101079.16;;;21.29;47.79
62617;BME280;62539;51.190;6.808;2023-03-19T09:37:41;101079.09;;;21.30;47.51
62617;BME280;62539;51.190;6.808;2023-03-19T09:40:15;101084.31;;;21.32;47.79
62617;BME280;62539;51.190;6.808;2023-03-19T09:42:56;101089.59;;;21.32;47.52
62617;BME280;62539;51.190;6.808;2023-03-19T09:45:28;101087.88;;;21.31;47.58
62617;BME280;62539;51.190;6.808;2023-03-19T09:47:57;101089.72;;;21.29;47.55
62617;BME280;62539;51.190;6.808;2023-03-19T09:50:31;101084.56;;;21.26;47.71
62617;BME280;62539;51.190;6.808;2023-03-19T09:53:21;101090.88;;;21.22;47.41
62617;BME280;62539;51.190;6.808;2023-03-19T09:55:57;101081.19;;;21.22;47.29
62617;BME280;62539;51.190;6.808;2023-03-19T09:58:34;101086.53;;;21.21;47.32
62617;BME280;62539;51.190;6.808;2023-03-19T10:01:00;101083.09;;;21.19;47.88
62617;BME280;62539;51.190;6.808;2023-03-19T10:04:31;101077.91;;;21.17;47.82
62617;BME280;62539;51.190;6.808;2023-03-19T10:06:43;101081.25;;;21.21;47.65
62617;BME280;62539;51.190;6.808;2023-03-19T10:09:42;101081.25;;;21.21;47.76
62617;BME280;62539;51.190;6.808;2023-03-19T10:12:40;101087.31;;;21.23;47.49
62617;BME280;62539;51.190;6.808;2023-03-19T10:15:30;101088.97;;;21.25;47.38
62617;BME280;62539;51.190;6.808;2023-03-19T10:18:02;101093.16;;;21.31;47.61
62617;BME280;62539;51.190;6.808;2023-03-19T10:25:54;101094.91;;;21.30;47.39
62617;BME280;62539;51.190;6.808;2023-03-19T10:28:22;101094.06;;;21.30;47.39
62617;BME280;62539;51.190;6.808;2023-03-19T10:31:12;101095.91;;;21.28;47.35
62617;BME280;62539;51.190;6.808;2023-03-19T10:33:57;101097.81;;;21.24;47.46
62617;BME280;62539;51.190;6.808;2023-03-19T10:36:47;101096.09;;;21.23;47.44
62617;BME280;62539;51.190;6.808;2023-03-19T10:39:15;101097.88;;;21.23;47.41
62617;BME280;62539;51.190;6.808;2023-03-19T10:41:48;101093.53;;;21.22;47.54
62617;BME280;62539;51.190;6.808;2023-03-19T10:44:30;101103.19;;;21.21;47.54
62617;BME280;62539;51.190;6.808;2023-03-19T10:47:09;101104.19;;;21.19;47.46
62617;BME280;62539;51.190;6.808;2023-03-19T10:49:36;101102.50;;;21.18;47.72
62617;BME280;62539;51.190;6.808;2023-03-19T10:52:01;101100.78;;;21.17;47.69
62617;BME280;62539;51.190;6.808;2023-03-19T10:54:27;101105.19;;;21.16;47.45
62617;BME280;62539;51.190;6.808;2023-03-19T10:56:56;101103.38;;;21.18;47.47
62617;BME280;62539;51.190;6.808;2023-03-19T10:59:32;101106.78;;;21.20;47.60
62617;BME280;62539;51.190;6.808;2023-03-19T11:02:20;101113.59;;;21.26;47.50
62617;BME280;62539;51.190;6.808;2023-03-19T11:05:06;101108.44;;;21.23;47.53
62617;BME280;62539;51.190;6.808;2023-03-19T11:07:38;101112.91;;;21.21;47.42
62617;BME280;62539;51.190;6.808;2023-03-19T11:10:11;101113.13;;;21.16;47.48
62617;BME280;62539;51.190;6.808;2023-03-19T11:12:40;101120.41;;;21.09;47.46
62617;BME280;62539;51.190;6.808;2023-03-19T11:15:22;101125.91;;;21.03;47.91
62617;BME280;62539;51.190;6.808;2023-03-19T11:17:57;101128.75;;;20.98;48.12
62617;BME280;62539;51.190;6.808;2023-03-19T11:20:31;101134.31;;;20.91;48.29
62617;BME280;62539;51.190;6.808;2023-03-19T11:22:59;101124.88;;;20.85;48.34
62617;BME280;62539;51.190;6.808;2023-03-19T11:25:41;101122.50;;;20.77;48.41
62617;BME280;62539;51.190;6.808;2023-03-19T11:28:21;101127.06;;;20.72;48.53
62617;BME280;62539;51.190;6.808;2023-03-19T11:33:58;101115.22;;;20.60;49.00
62617;BME280;62539;51.190;6.808;2023-03-19T11:36:53;101125.09;;;20.55;48.93
62617;BME280;62539;51.190;6.808;2023-03-19T11:45:58;101120.44;;;20.38;49.23
62617;BME280;62539;51.190;6.808;2023-03-19T11:51:33;101121.63;;;20.29;49.57
62617;BME280;62539;51.190;6.808;2023-03-19T11:54:40;101123.50;;;20.25;49.72
62617;BME280;62539;51.190;6.808;2023-03-19T11:57:23;101125.34;;;20.23;49.66
62617;BME280;62539;51.190;6.808;2023-03-19T12:09:13;101135.28;;;20.15;50.04
62617;BME280;62539;51.190;6.808;2023-03-19T12:11:52;101133.53;;;20.16;50.11
62617;BME280;62539;51.190;6.808;2023-03-19T12:15:23;101134.38;;;20.16;50.18
62617;BME280;62539;51.190;6.808;2023-03-19T12:17:57;101134.44;;;20.15;50.06
62617;BME280;62539;51.190;6.808;2023-03-19T12:20:55;101127.50;;;20.12;50.16
62617;BME280;62539;51.190;6.808;2023-03-19T12:23:56;101129.31;;;20.10;50.29
62617;BME280;62539;51.190;6.808;2023-03-19T12:30:00;101131.91;;;20.11;50.38
62617;BME280;62539;51.190;6.808;2023-03-19T12:35:32;101129.28;;;20.11;50.37
62617;BME280;62539;51.190;6.808;2023-03-19T12:40:54;101142.34;;;20.15;50.36
62617;BME280;62539;51.190;6.808;2023-03-19T12:43:29;101143.19;;;20.15;50.45
62617;BME280;62539;51.190;6.808;2023-03-19T12:46:15;101134.47;;;20.13;50.38
62617;BME280;62539;51.190;6.808;2023-03-19T12:48:51;101130.94;;;20.14;50.40
62617;BME280;62539;51.190;6.808;2023-03-19T12:51:25;101132.66;;;20.15;50.21
62617;BME280;62539;51.190;6.808;2023-03-19T12:54:08;101131.81;;;20.15;50.27
62617;BME280;62539;51.190;6.808;2023-03-19T12:56:53;101134.38;;;20.16;50.41
62617;BME280;62539;51.190;6.808;2023-03-19T12:59:31;101134.38;;;20.16;50.24
62617;BME280;62539;51.190;6.808;2023-03-19T13:02:21;101132.53;;;20.18;50.24
62617;BME280;62539;51.190;6.808;2023-03-19T13:05:06;101121.97;;;20.20;50.45
62617;BME280;62539;51.190;6.808;2023-03-19T13:07:56;101116.69;;;20.20;50.24
62617;BME280;62539;51.190;6.808;2023-03-19T13:10:33;101123.72;;;20.19;50.17
62617;BME280;62539;51.190;6.808;2023-03-19T13:13:16;101121.16;;;20.18;50.19
62617;BME280;62539;51.190;6.808;2023-03-19T13:15:56;101115.03;;;20.17;50.26
62617;BME280;62539;51.190;6.808;2023-03-19T13:18:39;101119.44;;;20.17;50.24
62617;BME280;62539;51.190;6.808;2023-03-19T13:21:23;101120.41;;;20.14;50.38
62617;BME280;62539;51.190;6.808;2023-03-19T13:24:16;101126.53;;;20.15;50.33
62617;BME280;62539;51.190;6.808;2023-03-19T13:26:47;101125.56;;;20.17;50.34
62617;BME280;62539;51.190;6.808;2023-03-19T13:29:24;101120.25;;;20.19;50.39
62617;BME280;62539;51.190;6.808;2023-03-19T13:31:59;101118.13;;;20.29;50.13
62617;BME280;62539;51.190;6.808;2023-03-19T13:34:28;101118.03;;;20.79;49.49
62617;BME280;62539;51.190;6.808;2023-03-19T13:37:10;101113.72;;;21.66;48.25
62617;BME280;62539;51.190;6.808;2023-03-19T13:39:40;101117.91;;;21.92;47.03
62617;BME280;62539;51.190;6.808;2023-03-19T13:42:09;101123.19;;;21.92;46.79